Chadstone Weather > Observations for 09/10/20

Select Day:



Observations
Time Temp Hum DP Wind Gust Dir Rain >9am Press
C % C kph kph mm hPa
00:00 13.0 88 11.1 12.6 24.5 NW 2.4 1014.1
00:10 12.9 88 11.0 11.9 23.4 WNW 2.4 1014.3
00:20 12.8 89 11.0 14.6 27.0 W 2.4 1014.3
00:30 12.7 89 10.9 15.2 33.1 W 2.7 1014.3
00:40 12.7 89 10.9 12.7 27.0 WNW 2.7 1014.4
00:50 12.6 89 10.8 14.4 34.2 WNW 2.7 1014.6
01:00 12.5 89 10.7 16.7 35.6 WNW 3.0 1014.6
01:10 12.5 89 10.7 11.7 29.5 WNW 3.0 1014.6
01:20 12.4 89 10.6 14.6 31.7 WNW 3.0 1014.5
01:30 12.3 88 10.4 14.1 33.1 W 3.0 1014.5
01:40 12.3 88 10.4 15.9 33.1 WNW 3.0 1014.4
01:50 12.3 87 10.2 18.4 31.7 NW 3.0 1014.4
02:00 12.3 87 10.2 16.4 33.1 W 3.0 1014.7
02:10 12.3 86 10.0 13.5 27.0 WNW 3.0 1014.6
02:20 12.4 85 10.0 11.9 27.0 WNW 3.0 1014.6
02:30 12.4 85 10.0 15.6 30.6 WNW 3.0 1014.8
02:40 12.4 85 10.0 16.4 29.5 WNW 3.0 1014.7
02:50 12.4 84 9.8 14.1 31.7 WNW 3.0 1014.8
03:00 12.4 84 9.8 11.6 25.6 WNW 3.0 1015.0
03:10 12.3 84 9.7 16.5 29.5 WNW 3.0 1015.2
03:20 12.3 84 9.7 18.2 34.2 WNW 3.0 1015.4
03:30 12.3 83 9.5 15.8 28.1 W 3.0 1015.7
03:40 12.3 83 9.5 13.8 27.0 WNW 3.0 1015.8
03:50 12.2 83 9.4 11.1 25.6 WSW 3.0 1016.0
04:00 12.2 83 9.4 13.4 30.6 W 3.0 1016.0
04:10 12.2 83 9.4 10.4 20.9 WNW 3.0 1016.1
04:20 12.2 82 9.2 12.1 24.5 WNW 3.0 1016.1
04:30 12.2 82 9.2 11.7 28.1 WSW 3.0 1016.2
04:40 12.3 82 9.3 10.8 24.5 WNW 3.0 1016.2
04:50 12.2 81 9.0 11.9 22.0 WNW 3.0 1016.3
05:00 12.2 82 9.2 10.9 27.0 WNW 3.0 1016.4
05:10 12.0 82 9.0 11.6 25.6 WNW 3.3 1016.5
05:20 11.9 84 9.3 14.2 25.6 NW 3.3 1016.5
05:30 12.0 83 9.2 11.5 22.0 W 3.3 1016.6
05:40 12.1 84 9.5 11.5 28.1 NW 3.3 1016.6
05:50 12.1 84 9.5 11.2 22.0 WNW 3.3 1016.8
06:00 12.2 83 9.4 15.8 28.1 WNW 3.3 1017.0
06:10 12.2 83 9.4 12.6 27.0 W 3.3 1017.1
06:20 12.2 84 9.6 12.8 22.0 WNW 3.3 1017.3
06:30 12.1 84 9.5 10.8 24.5 WNW 3.3 1017.4
06:40 12.1 84 9.5 10.4 24.5 NW 3.3 1017.5
06:50 12.0 84 9.4 11.5 27.0 W 3.3 1017.7
07:00 12.0 84 9.4 11.8 24.5 WSW 3.3 1018.0
07:10 11.9 86 9.6 11.0 24.5 W 3.3 1018.3
07:20 11.9 85 9.5 12.8 33.1 WNW 3.3 1018.4
07:30 11.9 85 9.5 8.4 19.4 WNW 3.3 1018.4
07:40 11.9 85 9.5 8.3 19.4 WNW 3.3 1018.4
07:50 11.9 85 9.5 10.5 22.0 WSW 3.3 1018.6
08:00 12.0 84 9.4 8.1 22.0 W 3.3 1018.9
08:10 12.0 83 9.2 10.7 19.4 WNW 3.3 1018.8
08:20 12.2 83 9.4 10.2 20.9 WNW 3.3 1019.0
08:30 12.3 82 9.3 12.0 22.0 WNW 3.3 1019.2
08:40 12.3 81 9.1 16.6 33.1 W 3.3 1019.2
08:50 12.4 81 9.2 9.8 23.4 WNW 3.3 1019.5
09:00 12.5 81 9.3 13.3 28.1 WNW 3.3 1019.8
09:10 12.5 81 9.3 11.7 22.0 W 3.3 1019.8
09:20 12.5 81 9.3 9.7 17.3 W 3.3 1020.0
09:30 12.5 80 9.1 14.8 19.4 W 3.3 1020.0
09:40 12.7 80 9.3 10.8 29.5 WNW 3.3 1020.0
09:50 12.7 79 9.2 13.2 29.5 W 3.3 1020.2
10:00 12.7 80 9.3 13.6 34.2 W 0.0 1020.2
10:10 12.9 80 9.5 12.3 28.1 NW 0.0 1020.3
10:20 13.1 78 9.4 11.0 31.7 W 0.0 1020.3
10:30 13.2 77 9.3 10.7 33.1 W 0.0 1020.4
10:40 13.2 77 9.3 14.3 30.6 WNW 0.0 1021.1
10:50 13.3 77 9.4 8.1 24.5 WSW 0.0 1021.1
11:00 13.4 77 9.5 11.6 29.5 W 0.0 1021.0
11:10 13.6 76 9.5 15.6 34.2 W 0.0 1021.1
11:20 14.0 75 9.6 12.6 34.2 SW 0.0 1021.3
11:30 14.4 74 9.8 14.6 30.6 W 0.0 1021.2
11:40 14.5 72 9.5 12.0 30.6 W 0.0 1021.3
11:50 14.3 73 9.5 11.6 25.6 WNW 0.0 1021.3
12:00 14.3 74 9.7 12.9 30.6 WNW 0.0 1021.2
12:10 14.7 73 9.9 11.7 25.6 WNW 0.0 1021.3
12:20 14.6 71 9.4 13.5 29.5 WSW 0.0 1021.2
12:30 14.5 72 9.5 10.1 25.6 W 0.0 1021.3
12:40 14.4 73 9.6 9.9 23.4 WNW 0.0 1021.1
12:50 14.7 74 10.1 12.7 25.6 W 0.0 1021.2
13:00 14.8 73 10.0 12.1 25.6 W 0.0 1021.4
13:10 14.8 73 10.0 11.7 25.6 W 0.0 1021.3
13:20 14.9 72 9.9 12.2 22.0 W 0.0 1021.4
13:30 15.2 72 10.2 10.6 24.5 W 0.0 1021.4
13:40 15.6 69 9.9 13.3 33.1 W 0.0 1021.2
13:50 15.7 69 10.0 12.9 29.5 W 0.0 1021.4
14:00 15.8 69 10.1 12.9 29.5 W 0.0 1021.3
14:10 16.0 66 9.7 14.3 34.2 W 0.0 1021.3
14:20 16.2 65 9.6 11.9 27.0 W 0.0 1021.1
14:30 16.9 66 10.5 13.0 33.1 NW 0.0 1021.1
14:40 17.0 62 9.7 14.4 36.7 W 0.0 1020.9
14:50 16.8 64 10.0 12.2 29.5 WNW 0.0 1021.0
15:00 17.3 63 10.2 9.1 24.5 W 0.0 1021.1
15:10 17.2 61 9.6 13.5 35.6 W 0.0 1020.9
15:20 17.3 61 9.7 12.4 35.6 WNW 0.0 1020.9
15:30 17.4 61 9.8 11.8 24.5 WNW 0.0 1020.9
15:40 17.2 60 9.4 9.7 22.0 W 0.0 1021.0
15:50 17.1 61 9.5 10.7 29.5 WSW 0.0 1020.9
16:00 17.0 62 9.7 7.9 22.0 WSW 0.0 1021.0
16:10 16.9 62 9.6 10.6 23.4 W 0.0 1020.9
16:20 16.8 62 9.5 10.8 28.1 WSW 0.0 1020.9
16:30 16.6 63 9.5 13.0 40.3 WSW 0.0 1021.0
16:40 16.8 62 9.5 14.4 29.5 W 0.0 1021.1
16:50 16.4 63 9.3 11.7 30.6 W 0.0 1021.4
17:00 16.4 62 9.1 7.4 22.0 SSW 0.0 1021.6
17:10 16.3 62 9.0 12.9 30.6 WNW 0.0 1021.6
17:20 16.2 64 9.4 9.2 27.0 WSW 0.0 1022.1
17:30 16.1 63 9.1 9.3 24.5 NW 0.0 1022.2
17:40 16.0 62 8.7 10.4 24.5 SW 0.0 1022.4
17:50 15.7 64 8.9 7.5 20.9 WNW 0.0 1022.3
18:00 15.7 64 8.9 7.0 28.1 W 0.0 1022.5
18:10 15.5 64 8.7 11.6 28.1 WNW 0.0 1022.7
18:20 15.3 65 8.8 8.4 19.4 SW 0.0 1022.9
18:30 15.2 66 8.9 6.3 18.4 SW 0.0 1023.2
18:40 15.1 67 9.0 6.1 20.9 WSW 0.0 1023.4
18:50 15.0 67 8.9 5.9 25.6 WSW 0.0 1023.6
19:00 14.9 70 9.5 7.2 22.0 WNW 0.0 1023.8
19:10 14.8 70 9.4 6.6 27.0 WNW 0.0 1024.1
19:20 14.6 69 9.0 9.6 24.5 WNW 0.0 1024.3
19:30 14.4 70 9.0 6.8 19.4 NW 0.0 1024.4
19:40 14.1 69 8.5 6.5 19.4 WNW 0.0 1024.6
19:50 14.0 69 8.4 5.6 20.9 WSW 0.0 1024.7
20:00 14.0 69 8.4 7.9 29.5 SW 0.0 1024.8
20:10 13.9 70 8.5 6.4 20.9 SW 0.0 1024.9
20:20 13.9 72 8.9 5.5 14.8 WSW 0.0 1025.0
20:30 13.8 72 8.8 6.0 18.4 W 0.0 1025.2
20:40 13.6 72 8.7 6.4 17.3 W 0.0 1025.3
20:50 13.5 73 8.8 8.2 18.4 SW 0.0 1025.2
21:00 13.5 73 8.8 7.3 20.9 WNW 0.0 1025.3
21:10 13.5 72 8.6 7.1 17.3 WNW 0.0 1025.4
21:20 13.4 71 8.3 7.7 15.8 W 0.0 1025.6
21:30 13.3 71 8.2 7.1 14.8 W 0.0 1025.7
21:40 13.2 71 8.1 5.6 13.3 SW 0.0 1025.8
21:50 13.1 71 8.0 3.5 13.3 WNW 0.0 1025.8
22:00 13.0 72 8.1 7.3 17.3 W 0.0 1026.0
22:10 12.9 72 8.0 5.9 17.3 W 0.0 1025.7
22:20 12.8 73 8.1 7.1 14.8 WNW 0.0 1025.9
22:30 12.6 73 7.9 6.2 13.3 W 0.0 1025.9
22:40 12.5 73 7.8 5.0 9.7 W 0.0 1025.9
22:50 12.3 73 7.6 4.9 11.2 W 0.0 1026.0
23:00 12.2 73 7.5 4.6 13.3 W 0.0 1026.1
23:10 12.2 74 7.7 4.9 9.7 WSW 0.0 1025.9
23:20 12.2 74 7.7 5.4 15.8 W 0.0 1026.0
23:30 12.2 74 7.7 5.1 11.2 W 0.0 1026.0
23:40 12.1 74 7.6 4.1 12.2 NW 0.0 1026.1
23:50 11.9 76 7.8 3.9 8.6 NW 0.0 1026.1